Impacts TAF Board
For situational awareness. Not to be used for flight planning purposes.
IDs:

KPIT - Pittsburgh Intl, PA, US

Issued at 0056 UTC 25 Mar 2019
Updated at 0132 UTC 25 Mar 2019
Potential Impact None Slight Moderate High
Time<<25/14Z 25/15Z 25/16Z 25/17Z 25/18Z 25/19Z 25/20Z 25/21Z 25/22Z 25/23Z 26/00Z 26/01Z 26/02Z>>
Type PRVL PRVL PRVL PRVL PRVL PRVL PRVL PRVL PRVL PRVL PRVL PRVL PRVL
VIS >6 >6 >6 >6 >6 >6 >6 >6 >6 >6 >6 >6 >6
CIG 35 35 35 35 35 35 -- -- -- -- -- -- --
Cover OVC OVC OVC OVC OVC OVC SKC SKC SKC SKC SKC SKC SKC
FltCat VFR VFR VFR VFR VFR VFR VFR VFR VFR VFR VFR VFR VFR
WX -- -- -- -- -- -- -- -- -- -- -- -- --
WDir 350 350 350 350 350 350 10 10 10 10 10 10 10
WSpd 6 6 6 6 6 6 8 8 8 8 8 8 8
WGst -- -- -- -- -- -- -- -- -- -- -- -- --
Raw TAF
KPIT 250056Z 2501/2606 VRB05KT P6SM OVC100
  TEMPO 2501/2504 27012G20KT
  FM251100 35006KT P6SM OVC035
  FM252000 01008KT P6SM SKC


METAR Board
Radar Display
Forecast Discussion
For situational awareness. Not to be used for flight planning purposes.